Colmslie — VJN3166 — position and weather

sailwx.info

Track history (hours):
 
Tides and Currents Weather Stations Pressure Air Temp Water Temp Dewpoint Dewpoint Depression Visibility Wind Speed Wind Dir Waves Ship Positions

Colmslie

Last reported at 2018-Jan-18 10:21 UTC. Time now 2018-Jan-19 03:47 UTC.
Position S 27°24' E 153°09'.

Length 22 m; draft 5.4 m.

Type: Tug. MMSI: 503194500.

Date/timePositionNaut miles runAvg speedWind from/ knotsBaromVisibWave heightAir tempDewpointWater temp
2018-Jan-18 10:21S 27°24' E 153°09'2 6.1
2018-Jan-18 09:59S 27°22' E 153°10'1 1.5
2018-Jan-18 09:29S 27°21' E 153°11'  
2018-Jan-12 14:52S 27°24' E 153°09'2 0.1
2018-Jan-11 18:40S 27°22' E 153°10'0 0.0
2018-Jan-11 18:12S 27°22' E 153°10'0 0.0
2018-Jan-11 18:00S 27°22' E 153°10'2 0.2
2018-Jan-11 09:26S 27°24' E 153°09'1 1.9
2018-Jan-11 08:59S 27°23' E 153°10'0 0.2
2018-Jan-11 08:24S 27°23' E 153°09'1 0.1
2018-Jan-10 20:26S 27°22' E 153°10'0 0.3
2018-Jan-10 20:00S 27°22' E 153°10'0 0.2
2018-Jan-10 19:22S 27°22' E 153°10'0 0.6
2018-Jan-10 19:00S 27°22' E 153°10'0 0.0
2018-Jan-10 18:29S 27°22' E 153°10'0 0.2
2018-Jan-10 18:00S 27°22' E 153°10'1 1.3
2018-Jan-10 17:30S 27°23' E 153°10'0 0.0
2018-Jan-10 17:00S 27°23' E 153°10'0 0.0
2018-Jan-10 16:30S 27°23' E 153°10'0 0.0
2018-Jan-10 16:00S 27°23' E 153°10'0 0.0
2018-Jan-10 15:30S 27°23' E 153°10'0 0.0
2018-Jan-10 15:00S 27°23' E 153°10'0 0.0
2018-Jan-10 14:30S 27°23' E 153°10'0 0.0
2018-Jan-10 14:00S 27°23' E 153°10'0 0.0
2018-Jan-10 13:30S 27°23' E 153°10'0 0.0
2018-Jan-10 13:00S 27°23' E 153°10'0 0.0
2018-Jan-10 12:30S 27°23' E 153°10'0 0.2
2018-Jan-10 11:59S 27°23' E 153°10'0 0.1
2018-Jan-10 10:04S 27°23' E 153°10'0 3.0
2018-Jan-10 09:57S 27°23' E 153°10'1 3.1
2018-Jan-10 09:30S 27°24' E 153°09'0 0.0
2018-Jan-09 19:34S 27°24' E 153°09'2 9.1
2018-Jan-09 19:20S 27°22' E 153°10'0 0.6
2018-Jan-09 18:52S 27°22' E 153°10'0 0.4
2018-Jan-09 18:29S 27°22' E 153°10'3 2.6
2018-Jan-09 17:31S 27°24' E 153°09'0 0.0
2018-Jan-09 17:29S 27°24' E 153°09'0 0.0
2018-Jan-09 17:00S 27°24' E 153°09'0 0.0
2018-Jan-09 16:30S 27°24' E 153°09'0 0.0
2018-Jan-09 16:00S 27°24' E 153°09'0 0.0
2018-Jan-09 15:30S 27°24' E 153°09'0 0.0
2018-Jan-09 15:00S 27°24' E 153°09'0 0.0
2018-Jan-09 14:30S 27°24' E 153°09'0 0.0
2018-Jan-09 14:00S 27°24' E 153°09'0 0.0
2018-Jan-09 13:30S 27°24' E 153°09'0 0.0
2018-Jan-09 13:00S 27°24' E 153°09'0 0.0
2018-Jan-09 12:30S 27°24' E 153°09'0 0.0
2018-Jan-09 11:56S 27°24' E 153°09'0 0.0
2018-Jan-09 11:29S 27°24' E 153°09'0 0.2
2018-Jan-09 11:00S 27°24' E 153°09'1 1.1
2018-Jan-09 10:27S 27°23' E 153°09'0 0.8
2018-Jan-09 10:00S 27°23' E 153°10'3 4.1
2018-Jan-09 09:23S 27°21' E 153°11'1 1.5
2018-Jan-09 08:58S 27°20' E 153°11'4 9.2
2018-Jan-09 08:29S 27°24' E 153°09'4 6.2
2018-Jan-09 07:55S 27°27' E 153°06'4 0.3
2018-Jan-08 20:24S 27°24' E 153°09'4 8.2
2018-Jan-08 19:58S 27°27' E 153°06'0 0.5
2018-Jan-08 19:09S 27°27' E 153°06'3 6.4
2018-Jan-08 18:44S 27°25' E 153°08'2 7.7
2018-Jan-08 18:27S 27°23' E 153°09'0 0.8
2018-Jan-08 18:00S 27°24' E 153°09'1 0.1
2018-Jan-08 10:57S 27°24' E 153°09'0 0.0
2018-Jan-08 10:21S 27°24' E 153°09'  
Track history (hours):
 
Tides and Currents Weather Stations Pressure Air Temp Water Temp Dewpoint Dewpoint Depression Visibility Wind Speed Wind Dir Waves Ship Positions

Colmslie

Last reported at 2018-Jan-18 10:21 UTC. Time now 2018-Jan-19 03:47 UTC.
Position S 27°24' E 153°09'.

Length 22 m; draft 5.4 m.

Type: Tug. MMSI: 503194500.

Date/timePositionNaut miles runAvg speedWind from/ knotsBaromVisibWave heightAir tempDewpointWater temp
2018-Jan-18 10:21S 27°24' E 153°09'2 6.1
2018-Jan-18 09:59S 27°22' E 153°10'1 1.5
2018-Jan-18 09:29S 27°21' E 153°11'  
2018-Jan-12 14:52S 27°24' E 153°09'2 0.1
2018-Jan-11 18:40S 27°22' E 153°10'0 0.0
2018-Jan-11 18:12S 27°22' E 153°10'0 0.0
2018-Jan-11 18:00S 27°22' E 153°10'2 0.2
2018-Jan-11 09:26S 27°24' E 153°09'1 1.9
2018-Jan-11 08:59S 27°23' E 153°10'0 0.2
2018-Jan-11 08:24S 27°23' E 153°09'1 0.1
2018-Jan-10 20:26S 27°22' E 153°10'0 0.3
2018-Jan-10 20:00S 27°22' E 153°10'0 0.2
2018-Jan-10 19:22S 27°22' E 153°10'0 0.6
2018-Jan-10 19:00S 27°22' E 153°10'0 0.0
2018-Jan-10 18:29S 27°22' E 153°10'0 0.2
2018-Jan-10 18:00S 27°22' E 153°10'1 1.3
2018-Jan-10 17:30S 27°23' E 153°10'0 0.0
2018-Jan-10 17:00S 27°23' E 153°10'0 0.0
2018-Jan-10 16:30S 27°23' E 153°10'0 0.0
2018-Jan-10 16:00S 27°23' E 153°10'0 0.0
2018-Jan-10 15:30S 27°23' E 153°10'0 0.0
2018-Jan-10 15:00S 27°23' E 153°10'0 0.0
2018-Jan-10 14:30S 27°23' E 153°10'0 0.0
2018-Jan-10 14:00S 27°23' E 153°10'0 0.0
2018-Jan-10 13:30S 27°23' E 153°10'0 0.0
2018-Jan-10 13:00S 27°23' E 153°10'0 0.0
2018-Jan-10 12:30S 27°23' E 153°10'0 0.2
2018-Jan-10 11:59S 27°23' E 153°10'0 0.1
2018-Jan-10 10:04S 27°23' E 153°10'0 3.0
2018-Jan-10 09:57S 27°23' E 153°10'1 3.1
2018-Jan-10 09:30S 27°24' E 153°09'0 0.0
2018-Jan-09 19:34S 27°24' E 153°09'2 9.1
2018-Jan-09 19:20S 27°22' E 153°10'0 0.6
2018-Jan-09 18:52S 27°22' E 153°10'0 0.4
2018-Jan-09 18:29S 27°22' E 153°10'3 2.6
2018-Jan-09 17:31S 27°24' E 153°09'0 0.0
2018-Jan-09 17:29S 27°24' E 153°09'0 0.0
2018-Jan-09 17:00S 27°24' E 153°09'0 0.0
2018-Jan-09 16:30S 27°24' E 153°09'0 0.0
2018-Jan-09 16:00S 27°24' E 153°09'0 0.0
2018-Jan-09 15:30S 27°24' E 153°09'0 0.0
2018-Jan-09 15:00S 27°24' E 153°09'0 0.0
2018-Jan-09 14:30S 27°24' E 153°09'0 0.0
2018-Jan-09 14:00S 27°24' E 153°09'0 0.0
2018-Jan-09 13:30S 27°24' E 153°09'0 0.0
2018-Jan-09 13:00S 27°24' E 153°09'0 0.0
2018-Jan-09 12:30S 27°24' E 153°09'0 0.0
2018-Jan-09 11:56S 27°24' E 153°09'0 0.0
2018-Jan-09 11:29S 27°24' E 153°09'0 0.2
2018-Jan-09 11:00S 27°24' E 153°09'1 1.1
2018-Jan-09 10:27S 27°23' E 153°09'0 0.8
2018-Jan-09 10:00S 27°23' E 153°10'3 4.1
2018-Jan-09 09:23S 27°21' E 153°11'1 1.5
2018-Jan-09 08:58S 27°20' E 153°11'4 9.2
2018-Jan-09 08:29S 27°24' E 153°09'4 6.2
2018-Jan-09 07:55S 27°27' E 153°06'4 0.3
2018-Jan-08 20:24S 27°24' E 153°09'4 8.2
2018-Jan-08 19:58S 27°27' E 153°06'0 0.5
2018-Jan-08 19:09S 27°27' E 153°06'3 6.4
2018-Jan-08 18:44S 27°25' E 153°08'2 7.7
2018-Jan-08 18:27S 27°23' E 153°09'0 0.8
2018-Jan-08 18:00S 27°24' E 153°09'1 0.1
2018-Jan-08 10:57S 27°24' E 153°09'0 0.0
2018-Jan-08 10:21S 27°24' E 153°09'  

Dump ship's entire track history